createdAt,value
2017-12-15T00:00:47.632Z,935.95
2017-12-15T00:01:47.646Z,935.99
2017-12-15T00:02:47.667Z,936.02
2017-12-15T00:03:47.678Z,936.08
2017-12-15T00:04:47.688Z,936.11
2017-12-15T00:05:47.709Z,936.16
2017-12-15T00:06:47.717Z,936.12
2017-12-15T00:07:47.731Z,936.1
2017-12-15T00:08:47.746Z,936.02
2017-12-15T00:09:47.759Z,936.06
2017-12-15T00:10:47.774Z,936.05
2017-12-15T00:11:47.788Z,936.02
2017-12-15T00:12:47.800Z,936.04
2017-12-15T00:13:47.816Z,936.02
2017-12-15T00:14:47.829Z,936.01
2017-12-15T00:15:48.045Z,935.95
2017-12-15T00:16:47.858Z,935.99
2017-12-15T00:17:47.922Z,935.92
2017-12-15T00:18:47.887Z,935.91
2017-12-15T00:19:47.899Z,935.82
2017-12-15T00:20:47.914Z,935.84
2017-12-15T00:21:47.928Z,935.79
2017-12-15T00:22:47.943Z,935.79
2017-12-15T00:23:47.959Z,935.74
2017-12-15T00:24:47.976Z,935.81
2017-12-15T00:25:47.984Z,935.76
2017-12-15T00:26:47.999Z,935.79
2017-12-15T00:27:48.012Z,935.81
2017-12-15T00:28:48.026Z,935.87
2017-12-15T00:29:48.041Z,935.81
2017-12-15T00:30:48.055Z,935.77
2017-12-15T00:31:48.068Z,935.76
2017-12-15T00:32:48.132Z,935.73
2017-12-15T00:33:48.095Z,935.69
2017-12-15T00:34:48.113Z,935.72
2017-12-15T00:35:48.124Z,935.7
2017-12-15T00:36:48.138Z,935.79
2017-12-15T00:37:48.152Z,935.87
2017-12-15T00:38:48.165Z,935.91
2017-12-15T00:39:48.179Z,935.94
2017-12-15T00:40:48.193Z,935.95
2017-12-15T00:41:48.206Z,935.88
2017-12-15T00:42:48.221Z,935.83
2017-12-15T00:43:48.235Z,935.8
2017-12-15T00:44:48.248Z,935.75
2017-12-15T00:45:48.261Z,935.77
2017-12-15T00:46:48.275Z,935.68
2017-12-15T00:47:48.289Z,935.7
2017-12-15T00:48:48.304Z,935.71
2017-12-15T00:49:48.367Z,935.67
2017-12-15T00:50:48.331Z,935.74
2017-12-15T00:51:48.342Z,935.74
2017-12-15T00:52:48.357Z,935.78
2017-12-15T00:53:48.371Z,935.77
2017-12-15T00:54:48.384Z,935.84
2017-12-15T00:55:48.399Z,935.84
2017-12-15T00:56:48.410Z,935.82
2017-12-15T00:57:48.424Z,935.84
2017-12-15T00:58:48.437Z,935.78
2017-12-15T00:59:48.449Z,935.72
2017-12-15T01:00:48.464Z,935.61
2017-12-15T01:01:48.476Z,935.55
2017-12-15T01:02:48.489Z,935.48
2017-12-15T01:03:48.504Z,935.4
2017-12-15T01:04:48.566Z,935.35
2017-12-15T01:05:48.530Z,935.26
2017-12-15T01:06:48.544Z,935.27
2017-12-15T01:07:48.556Z,935.23
2017-12-15T01:08:48.568Z,935.27
2017-12-15T01:09:48.611Z,935.28
2017-12-15T01:10:48.596Z,935.23
2017-12-15T01:11:48.609Z,935.22
2017-12-15T01:12:48.621Z,935.21
2017-12-15T01:13:48.635Z,935.2
2017-12-15T01:14:48.647Z,935.18
2017-12-15T01:15:48.661Z,935.21
2017-12-15T01:16:48.673Z,935.23
2017-12-15T01:17:48.688Z,935.17
2017-12-15T01:18:48.699Z,935.12
2017-12-15T01:19:48.763Z,935.2
2017-12-15T01:20:48.728Z,935.12
2017-12-15T01:21:48.740Z,935.17
2017-12-15T01:22:48.753Z,935.13
2017-12-15T01:23:48.765Z,935.04
2017-12-15T01:24:48.880Z,935.02
2017-12-15T01:25:48.792Z,935.07
2017-12-15T01:26:48.805Z,935.09
2017-12-15T01:27:48.818Z,935.19
2017-12-15T01:28:48.832Z,935.24
2017-12-15T01:29:48.845Z,935.3
2017-12-15T01:30:48.856Z,935.26
2017-12-15T01:31:48.870Z,935.37
2017-12-15T01:32:48.887Z,935.4
2017-12-15T01:33:48.895Z,935.46
2017-12-15T01:34:48.960Z,935.45
2017-12-15T01:35:48.923Z,935.52
2017-12-15T01:36:48.935Z,935.57
2017-12-15T01:37:48.948Z,935.65
2017-12-15T01:38:48.962Z,935.66
2017-12-15T01:39:48.975Z,935.65
2017-12-15T01:40:48.988Z,935.54
2017-12-15T01:41:49.002Z,935.52
2017-12-15T01:42:49.026Z,935.52
2017-12-15T01:43:49.028Z,935.58
2017-12-15T01:44:49.043Z,935.63
2017-12-15T01:45:49.054Z,935.71
2017-12-15T01:46:49.084Z,935.68
2017-12-15T01:47:49.081Z,935.75
2017-12-15T01:48:49.095Z,935.78
2017-12-15T01:49:49.156Z,935.81
2017-12-15T01:50:49.120Z,935.83
2017-12-15T01:51:49.132Z,935.77
2017-12-15T01:52:49.147Z,935.81
2017-12-15T01:53:49.160Z,935.79
2017-12-15T01:54:49.172Z,935.86
2017-12-15T01:55:49.185Z,935.88
2017-12-15T01:56:49.199Z,935.81
2017-12-15T01:57:49.217Z,935.85
2017-12-15T01:58:49.223Z,935.88
2017-12-15T01:59:49.237Z,935.89
2017-12-15T02:00:49.252Z,935.91
2017-12-15T02:01:49.265Z,935.94
2017-12-15T02:02:49.276Z,936.05
2017-12-15T02:03:49.290Z,936.04
2017-12-15T02:04:49.352Z,936.13
2017-12-15T02:05:49.316Z,936.16
2017-12-15T02:06:49.329Z,936.05
2017-12-15T02:07:49.342Z,935.96
2017-12-15T02:08:49.355Z,935.94
2017-12-15T02:09:49.368Z,935.93
2017-12-15T02:10:49.382Z,935.82
2017-12-15T02:11:49.394Z,935.73
2017-12-15T02:12:49.407Z,935.7
2017-12-15T02:13:49.419Z,935.66
2017-12-15T02:14:49.434Z,935.76
2017-12-15T02:15:49.446Z,935.74
2017-12-15T02:16:49.459Z,935.78
2017-12-15T02:17:49.477Z,935.78
2017-12-15T02:18:49.486Z,935.88
2017-12-15T02:19:49.549Z,935.9
2017-12-15T02:20:49.511Z,935.87
2017-12-15T02:21:49.525Z,935.91
2017-12-15T02:22:49.537Z,935.91
2017-12-15T02:23:49.551Z,935.93
2017-12-15T02:24:49.564Z,935.87
2017-12-15T02:25:49.576Z,935.89
2017-12-15T02:26:49.590Z,935.86
2017-12-15T02:27:49.605Z,935.82
2017-12-15T02:28:49.615Z,935.8
2017-12-15T02:29:49.635Z,935.89
2017-12-15T02:30:49.643Z,935.98
2017-12-15T02:31:49.655Z,935.87
2017-12-15T02:32:49.668Z,935.85
2017-12-15T02:33:49.681Z,935.79
2017-12-15T02:34:49.744Z,935.89
2017-12-15T02:35:49.707Z,935.86
2017-12-15T02:36:49.719Z,935.82
2017-12-15T02:37:49.732Z,935.84
2017-12-15T02:38:49.745Z,935.88
2017-12-15T02:39:49.759Z,935.88
2017-12-15T02:40:49.773Z,935.92
2017-12-15T02:41:49.786Z,935.95
2017-12-15T02:42:49.797Z,935.91
2017-12-15T02:43:49.813Z,935.99
2017-12-15T02:44:49.824Z,935.98
2017-12-15T02:45:49.836Z,936.01
2017-12-15T02:46:49.851Z,936.05
2017-12-15T02:47:49.864Z,936.08
2017-12-15T02:48:49.876Z,936.03
2017-12-15T02:49:49.939Z,936.06
2017-12-15T02:50:49.902Z,935.97
2017-12-15T02:51:49.916Z,936.05
2017-12-15T02:52:49.929Z,936.12
2017-12-15T02:53:49.942Z,935.99
2017-12-15T02:54:49.955Z,936.13
2017-12-15T02:55:49.967Z,936
2017-12-15T02:56:49.985Z,936.03
2017-12-15T02:57:49.994Z,936.03
2017-12-15T02:58:50.008Z,936
2017-12-15T02:59:50.020Z,936.04
2017-12-15T03:00:50.033Z,936.12
2017-12-15T03:01:50.046Z,936.15
2017-12-15T03:02:50.059Z,936.13
2017-12-15T03:03:50.071Z,936.2
2017-12-15T03:04:51.487Z,936.2
2017-12-15T03:05:50.118Z,936.2
2017-12-15T03:06:50.109Z,936.25
2017-12-15T03:07:50.125Z,936.3
2017-12-15T03:08:50.137Z,936.19
2017-12-15T03:09:50.150Z,936.32
2017-12-15T03:10:50.164Z,936.38
2017-12-15T03:11:50.174Z,936.38
2017-12-15T03:12:50.192Z,936.2
2017-12-15T03:13:50.202Z,936.2
2017-12-15T03:14:50.215Z,936.17
2017-12-15T03:15:50.231Z,936.13
2017-12-15T03:16:50.242Z,936.2
2017-12-15T03:17:50.256Z,936.15
2017-12-15T03:18:50.268Z,936.16
2017-12-15T03:19:50.281Z,936.16
2017-12-15T03:20:50.294Z,936.2
2017-12-15T03:21:50.309Z,936.17
2017-12-15T03:22:50.321Z,936.23
2017-12-15T03:23:50.335Z,936.25
2017-12-15T03:24:50.347Z,936.37
2017-12-15T03:25:50.361Z,936.33
2017-12-15T03:26:50.373Z,936.36
2017-12-15T03:27:50.388Z,936.33
2017-12-15T03:28:50.403Z,936.31
2017-12-15T03:29:50.414Z,936.23
2017-12-15T03:30:50.428Z,936.24
2017-12-15T03:31:50.447Z,936.31
2017-12-15T03:32:50.454Z,936.4
2017-12-15T03:33:50.465Z,936.43
2017-12-15T03:34:50.480Z,936.39
2017-12-15T03:35:50.492Z,936.4
2017-12-15T03:36:50.506Z,936.31
2017-12-15T03:37:50.519Z,936.33
2017-12-15T03:38:50.531Z,936.32
2017-12-15T03:39:50.546Z,936.32
2017-12-15T03:40:50.557Z,936.18
2017-12-15T03:41:50.570Z,936.15
2017-12-15T03:42:50.585Z,936.21
2017-12-15T03:43:50.597Z,936.17
2017-12-15T03:44:50.611Z,936.23
2017-12-15T03:45:50.623Z,936.42
2017-12-15T03:46:50.637Z,936.34
2017-12-15T03:47:50.650Z,936.36
2017-12-15T03:48:50.670Z,936.36
2017-12-15T03:49:50.676Z,936.44
2017-12-15T03:50:50.688Z,936.3
2017-12-15T03:51:50.702Z,936.51
2017-12-15T03:52:50.716Z,936.59
2017-12-15T03:53:50.728Z,936.53
2017-12-15T03:54:50.742Z,936.58
2017-12-15T03:55:50.754Z,936.59
2017-12-15T03:56:50.768Z,936.57
2017-12-15T03:57:50.781Z,936.58
2017-12-15T03:58:50.796Z,936.5
2017-12-15T03:59:50.814Z,936.54
2017-12-15T04:00:50.822Z,936.57
2017-12-15T04:01:50.835Z,936.61
2017-12-15T04:02:50.849Z,936.65
2017-12-15T04:03:50.861Z,936.53
2017-12-15T04:04:50.874Z,936.48
2017-12-15T04:05:50.889Z,936.4
2017-12-15T04:06:50.899Z,936.62
2017-12-15T04:07:50.914Z,936.73
2017-12-15T04:08:50.927Z,936.57
2017-12-15T04:09:50.942Z,936.53
2017-12-15T04:10:50.953Z,936.5
2017-12-15T04:11:50.968Z,936.42
2017-12-15T04:12:50.980Z,936.45
2017-12-15T04:13:50.993Z,936.49
2017-12-15T04:14:51.009Z,936.35
2017-12-15T04:15:51.019Z,936.39
2017-12-15T04:16:51.034Z,936.37
2017-12-15T04:17:51.048Z,936.38
2017-12-15T04:18:51.062Z,936.46
2017-12-15T04:19:51.076Z,936.44
2017-12-15T04:20:51.089Z,936.4
2017-12-15T04:21:51.101Z,936.39
2017-12-15T04:22:51.114Z,936.47
2017-12-15T04:23:51.127Z,936.39
2017-12-15T04:24:51.155Z,936.42
2017-12-15T04:25:51.155Z,936.66
2017-12-15T04:26:51.169Z,936.6
2017-12-15T04:27:51.182Z,936.75
2017-12-15T04:28:51.195Z,936.78
2017-12-15T04:29:51.208Z,936.81
2017-12-15T04:30:51.224Z,936.9
2017-12-15T04:31:51.237Z,936.93
2017-12-15T04:32:51.250Z,936.97
2017-12-15T04:33:51.262Z,936.9
2017-12-15T04:34:51.276Z,936.87
2017-12-15T04:35:51.288Z,936.83
2017-12-15T04:36:51.304Z,936.81
2017-12-15T04:37:51.317Z,936.79
2017-12-15T04:38:51.330Z,936.76
2017-12-15T04:39:51.342Z,936.72
2017-12-15T04:40:51.356Z,936.72
2017-12-15T04:41:51.370Z,936.81
2017-12-15T04:42:51.384Z,936.94
2017-12-15T04:43:51.397Z,936.96
2017-12-15T04:44:51.411Z,936.99
2017-12-15T04:45:51.424Z,937.04
2017-12-15T04:46:51.436Z,937.18
2017-12-15T04:47:51.451Z,937.02
2017-12-15T04:48:51.462Z,937.09
2017-12-15T04:49:51.476Z,937.01
2017-12-15T04:50:51.498Z,937.11
2017-12-15T04:51:51.504Z,937.11
2017-12-15T04:52:51.516Z,937.13
2017-12-15T04:53:51.531Z,937.14
2017-12-15T04:54:51.561Z,937.26
2017-12-15T04:55:51.559Z,937.35
2017-12-15T04:56:51.572Z,937.46
2017-12-15T04:57:51.583Z,937.45
2017-12-15T04:58:51.597Z,937.47
2017-12-15T04:59:51.613Z,937.5
2017-12-15T05:00:51.639Z,937.49
2017-12-15T05:01:51.637Z,937.42
2017-12-15T05:02:51.651Z,937.44
2017-12-15T05:03:51.665Z,937.45
2017-12-15T05:04:51.677Z,937.51
2017-12-15T05:05:51.691Z,937.44
2017-12-15T05:06:51.704Z,937.5
2017-12-15T05:07:51.868Z,937.58
2017-12-15T05:08:51.731Z,937.43
2017-12-15T05:09:51.744Z,937.21
2017-12-15T05:10:51.757Z,937.48
2017-12-15T05:11:51.770Z,937.39
2017-12-15T05:12:51.783Z,937.47
2017-12-15T05:13:51.798Z,937.45
2017-12-15T05:14:51.810Z,937.51
2017-12-15T05:15:51.822Z,937.49
2017-12-15T05:16:51.836Z,937.53
2017-12-15T05:17:51.849Z,937.48
2017-12-15T05:18:51.863Z,937.45
2017-12-15T05:19:51.875Z,937.46
2017-12-15T05:20:51.888Z,937.62
2017-12-15T05:21:51.933Z,937.56
2017-12-15T05:22:51.967Z,937.57
2017-12-15T05:23:51.929Z,937.68
2017-12-15T05:24:51.943Z,937.6
2017-12-15T05:25:51.956Z,937.54
2017-12-15T05:26:51.969Z,937.55
2017-12-15T05:27:51.982Z,937.59
2017-12-15T05:28:52.001Z,937.74
2017-12-15T05:29:52.010Z,937.67
2017-12-15T05:30:52.021Z,937.61
2017-12-15T05:31:52.036Z,937.64
2017-12-15T05:32:52.100Z,937.8
2017-12-15T05:33:52.062Z,937.75
2017-12-15T05:34:52.076Z,937.82
2017-12-15T05:35:52.092Z,937.94
2017-12-15T05:36:52.123Z,937.97
2017-12-15T05:37:52.165Z,937.95
2017-12-15T05:38:52.130Z,937.92
2017-12-15T05:39:52.144Z,937.89
2017-12-15T05:40:52.161Z,937.86
2017-12-15T05:41:52.169Z,937.89
2017-12-15T05:42:52.183Z,937.97
2017-12-15T05:43:52.195Z,937.96
2017-12-15T05:44:52.210Z,938.04
2017-12-15T05:45:52.222Z,938.09
2017-12-15T05:46:52.237Z,938.16
2017-12-15T05:47:52.300Z,938.15
2017-12-15T05:48:52.261Z,938.19
2017-12-15T05:49:52.342Z,938.09
2017-12-15T05:50:52.289Z,938.14
2017-12-15T05:51:52.303Z,938.17
2017-12-15T05:52:52.367Z,938.11
2017-12-15T05:53:52.330Z,938.17
2017-12-15T05:54:52.344Z,938.12
2017-12-15T05:55:52.358Z,938.14
2017-12-15T05:56:52.372Z,938.11
2017-12-15T05:57:52.386Z,937.96
2017-12-15T05:58:52.399Z,938.12
2017-12-15T05:59:52.411Z,938
2017-12-15T06:00:52.426Z,938.02
2017-12-15T06:01:52.440Z,938.13
2017-12-15T06:02:52.457Z,938.2
2017-12-15T06:03:52.468Z,938.11
2017-12-15T06:04:52.481Z,938.08
2017-12-15T06:05:52.498Z,937.93
2017-12-15T06:06:52.509Z,938.04
2017-12-15T06:07:52.573Z,938.08
2017-12-15T06:08:52.535Z,938.14
2017-12-15T06:09:52.550Z,938.12
2017-12-15T06:10:52.563Z,938.07
2017-12-15T06:11:52.577Z,938.13
2017-12-15T06:12:52.612Z,938.16
2017-12-15T06:13:52.608Z,938.18
2017-12-15T06:14:52.619Z,938.09
2017-12-15T06:15:52.632Z,938.06
2017-12-15T06:16:52.646Z,938.01
2017-12-15T06:17:52.659Z,938.1
2017-12-15T06:18:52.676Z,938.25
2017-12-15T06:19:52.690Z,938.21
2017-12-15T06:20:52.699Z,938.12
2017-12-15T06:21:52.714Z,938.18
2017-12-15T06:22:52.925Z,938.37
2017-12-15T06:23:52.740Z,938.18
2017-12-15T06:24:52.754Z,938.24
2017-12-15T06:25:52.773Z,938.24
2017-12-15T06:26:52.781Z,938.29
2017-12-15T06:27:52.794Z,938.42
2017-12-15T06:28:52.808Z,938.31
2017-12-15T06:29:52.821Z,938.44
2017-12-15T06:30:52.837Z,938.3
2017-12-15T06:31:52.849Z,938.25
2017-12-15T06:32:52.862Z,938.17
2017-12-15T06:33:52.875Z,938.16
2017-12-15T06:34:52.890Z,938.32
2017-12-15T06:35:52.903Z,938.24
2017-12-15T06:36:52.916Z,938.22
2017-12-15T06:37:52.930Z,938.3
2017-12-15T06:38:52.993Z,938.32
2017-12-15T06:39:52.955Z,938.25
2017-12-15T06:40:52.970Z,938.29
2017-12-15T06:41:52.984Z,938.2
2017-12-15T06:42:52.997Z,938.26
2017-12-15T06:43:53.008Z,938.19
2017-12-15T06:44:53.023Z,938.14
2017-12-15T06:45:53.038Z,938.14
2017-12-15T06:46:53.049Z,938.28
2017-12-15T06:47:53.062Z,938.18
2017-12-15T06:48:53.095Z,938.2
2017-12-15T06:49:53.091Z,938.24
2017-12-15T06:50:53.103Z,938.2
2017-12-15T06:51:53.118Z,938.24
2017-12-15T06:52:53.130Z,938.11
2017-12-15T06:53:53.196Z,938.13
2017-12-15T06:54:53.158Z,938.08
2017-12-15T06:55:53.175Z,938.17
2017-12-15T06:56:53.186Z,938.12
2017-12-15T06:57:53.199Z,938.13
2017-12-15T06:58:53.210Z,938.11
2017-12-15T06:59:53.225Z,938.17
2017-12-15T07:00:53.237Z,938.08
2017-12-15T07:01:53.251Z,938.19
2017-12-15T07:02:53.264Z,938.08
2017-12-15T07:03:53.278Z,938.17
2017-12-15T07:04:53.297Z,938.12
2017-12-15T07:05:53.305Z,938.16
2017-12-15T07:06:53.318Z,938.21
2017-12-15T07:07:53.331Z,938.11
2017-12-15T07:08:53.498Z,938.15
2017-12-15T07:09:53.358Z,938.18
2017-12-15T07:10:53.373Z,938.17
2017-12-15T07:11:53.389Z,938.19
2017-12-15T07:12:53.399Z,938.28
2017-12-15T07:13:53.412Z,938.25
2017-12-15T07:14:53.427Z,938.26
2017-12-15T07:15:53.440Z,938.3
2017-12-15T07:16:53.453Z,938.28
2017-12-15T07:17:53.472Z,938.32
2017-12-15T07:18:53.481Z,938.33
2017-12-15T07:19:53.494Z,938.35
2017-12-15T07:20:53.507Z,938.28
2017-12-15T07:21:53.521Z,938.36
2017-12-15T07:22:53.535Z,938.38
2017-12-15T07:23:53.546Z,938.41
2017-12-15T07:24:53.578Z,938.42
2017-12-15T07:25:53.576Z,938.54
2017-12-15T07:26:53.588Z,938.58
2017-12-15T07:27:53.602Z,938.63
2017-12-15T07:28:53.616Z,938.59
2017-12-15T07:29:53.632Z,938.64
2017-12-15T07:30:53.643Z,938.66
2017-12-15T07:31:53.659Z,938.71
2017-12-15T07:32:53.670Z,938.71
2017-12-15T07:33:53.685Z,938.67
2017-12-15T07:34:53.698Z,938.7
2017-12-15T07:35:53.715Z,938.71
2017-12-15T07:36:53.780Z,938.73
2017-12-15T07:37:53.739Z,938.71
2017-12-15T07:38:53.753Z,938.75
2017-12-15T07:39:53.765Z,938.78
2017-12-15T07:40:53.780Z,938.77
2017-12-15T07:41:53.797Z,938.81
2017-12-15T07:42:53.807Z,938.92
2017-12-15T07:43:53.821Z,938.98
2017-12-15T07:44:53.835Z,938.96
2017-12-15T07:45:53.847Z,938.95
2017-12-15T07:46:53.861Z,939.06
2017-12-15T07:47:53.874Z,938.97
2017-12-15T07:48:53.889Z,938.92
2017-12-15T07:49:53.902Z,939.05
2017-12-15T07:50:53.917Z,939.03
2017-12-15T07:51:53.930Z,939.02
2017-12-15T07:52:53.944Z,939.06
2017-12-15T07:53:53.956Z,939.03
2017-12-15T07:54:53.972Z,939.1
2017-12-15T07:55:53.984Z,938.99
2017-12-15T07:56:53.997Z,938.93
2017-12-15T07:57:54.012Z,938.93
2017-12-15T07:58:54.026Z,938.87
2017-12-15T07:59:54.039Z,938.91
2017-12-15T08:00:54.068Z,938.88
2017-12-15T08:01:54.067Z,938.86
2017-12-15T08:02:54.080Z,938.91
2017-12-15T08:03:54.095Z,938.88
2017-12-15T08:04:54.109Z,938.83
2017-12-15T08:05:54.122Z,938.87
2017-12-15T08:06:54.136Z,938.87
2017-12-15T08:07:54.150Z,938.83
2017-12-15T08:08:54.163Z,938.98
2017-12-15T08:09:54.177Z,938.92
2017-12-15T08:10:54.191Z,938.91
2017-12-15T08:11:54.204Z,938.91
2017-12-15T08:12:54.220Z,939.02
2017-12-15T08:13:54.231Z,939
2017-12-15T08:14:54.245Z,939.02
2017-12-15T08:15:54.262Z,939.05
2017-12-15T08:16:54.272Z,939.04
2017-12-15T08:17:54.286Z,939.01
2017-12-15T08:18:54.299Z,939.08
2017-12-15T08:19:54.314Z,939.04
2017-12-15T08:20:54.326Z,939.05
2017-12-15T08:21:54.344Z,939.06
2017-12-15T08:22:54.354Z,939.12
2017-12-15T08:23:54.369Z,939.13
2017-12-15T08:24:54.382Z,939.1
2017-12-15T08:25:54.395Z,939.11
2017-12-15T08:26:54.409Z,939.15
2017-12-15T08:27:54.425Z,939.2
2017-12-15T08:28:54.437Z,939.15
2017-12-15T08:29:54.452Z,939.17
2017-12-15T08:30:54.465Z,939.2
2017-12-15T08:31:54.480Z,939.18
2017-12-15T08:32:54.494Z,939.25
2017-12-15T08:33:54.507Z,939.19
2017-12-15T08:34:54.521Z,939.22
2017-12-15T08:35:54.536Z,939.22
2017-12-15T08:36:54.548Z,939.24
2017-12-15T08:37:54.562Z,939.23
2017-12-15T08:38:54.576Z,939.25
2017-12-15T08:39:54.590Z,939.18
2017-12-15T08:40:54.605Z,939.22
2017-12-15T08:41:54.617Z,939.27
2017-12-15T08:42:54.631Z,939.26
2017-12-15T08:43:54.646Z,939.27
2017-12-15T08:44:54.658Z,939.22
2017-12-15T08:45:54.674Z,939.25
2017-12-15T08:46:54.687Z,939.29
2017-12-15T08:47:54.700Z,939.26
2017-12-15T08:48:54.715Z,939.17
2017-12-15T08:49:54.726Z,939.25
2017-12-15T08:50:54.786Z,939.22
2017-12-15T08:51:54.754Z,939.23
2017-12-15T08:52:54.768Z,939.15
2017-12-15T08:53:54.782Z,939.2
2017-12-15T08:54:54.800Z,939.19
2017-12-15T08:55:54.812Z,939.19
2017-12-15T08:56:54.828Z,939.27
2017-12-15T08:57:54.842Z,939.26
2017-12-15T08:58:54.854Z,939.31
2017-12-15T08:59:54.869Z,939.31
2017-12-15T09:00:54.885Z,939.41
2017-12-15T09:01:54.897Z,939.42
2017-12-15T09:02:54.911Z,939.44
2017-12-15T09:03:54.927Z,939.41
2017-12-15T09:04:54.940Z,939.52
2017-12-15T09:05:54.967Z,939.47
2017-12-15T09:06:54.969Z,939.53
2017-12-15T09:07:54.983Z,939.52
2017-12-15T09:08:54.998Z,939.51
2017-12-15T09:09:55.012Z,939.48
2017-12-15T09:10:55.046Z,939.46
2017-12-15T09:11:55.041Z,939.58
2017-12-15T09:12:55.056Z,939.52
2017-12-15T09:13:55.070Z,939.48
2017-12-15T09:14:55.090Z,939.42
2017-12-15T09:15:55.108Z,939.49
2017-12-15T09:16:55.116Z,939.38
2017-12-15T09:17:55.128Z,939.46
2017-12-15T09:18:55.150Z,939.42
2017-12-15T09:19:55.160Z,939.42
2017-12-15T09:20:55.172Z,939.47
2017-12-15T09:21:55.190Z,939.46
2017-12-15T09:22:55.203Z,939.52
2017-12-15T09:23:55.218Z,939.46
2017-12-15T09:24:55.233Z,939.5
2017-12-15T09:25:55.248Z,939.44
2017-12-15T09:26:55.312Z,939.52
2017-12-15T09:27:55.283Z,939.46
2017-12-15T09:28:55.290Z,939.48
2017-12-15T09:29:55.306Z,939.48
2017-12-15T09:30:55.321Z,939.41
2017-12-15T09:31:55.336Z,939.44
2017-12-15T09:32:55.356Z,939.42
2017-12-15T09:33:55.367Z,939.42
2017-12-15T09:34:55.386Z,939.4
2017-12-15T09:35:55.396Z,939.36
2017-12-15T09:36:55.411Z,939.38
2017-12-15T09:37:55.425Z,939.51
2017-12-15T09:38:55.441Z,939.31
2017-12-15T09:39:55.456Z,939.39
2017-12-15T09:40:55.472Z,939.38
2017-12-15T09:41:55.537Z,939.45
2017-12-15T09:42:55.501Z,939.48
2017-12-15T09:43:55.516Z,939.36
2017-12-15T09:44:55.532Z,939.46
2017-12-15T09:45:55.547Z,939.49
2017-12-15T09:46:55.560Z,939.43
2017-12-15T09:47:55.574Z,939.45
2017-12-15T09:48:55.592Z,939.48
2017-12-15T09:49:55.604Z,939.48
2017-12-15T09:50:55.621Z,939.58
2017-12-15T09:51:55.686Z,939.65
2017-12-15T09:52:55.652Z,939.64
2017-12-15T09:53:55.666Z,939.71
2017-12-15T09:54:55.685Z,939.64
2017-12-15T09:55:55.699Z,939.61
2017-12-15T09:56:55.765Z,939.62
2017-12-15T09:57:55.731Z,939.61
2017-12-15T09:58:55.748Z,939.56
2017-12-15T09:59:55.766Z,939.58
2017-12-15T10:00:55.783Z,939.61
2017-12-15T10:01:55.800Z,939.6
2017-12-15T10:02:55.823Z,939.58
2017-12-15T10:03:55.838Z,939.61
2017-12-15T10:04:55.855Z,939.6
2017-12-15T10:05:55.874Z,939.65
2017-12-15T10:06:55.893Z,939.6
2017-12-15T10:07:55.912Z,939.69
2017-12-15T10:08:55.932Z,939.69
2017-12-15T10:09:55.952Z,939.67
2017-12-15T10:10:55.971Z,939.68
2017-12-15T10:11:56.045Z,939.62
2017-12-15T10:12:56.013Z,939.62
2017-12-15T10:13:56.034Z,939.72
2017-12-15T10:14:56.055Z,939.63
2017-12-15T10:15:56.074Z,939.68
2017-12-15T10:16:56.097Z,939.76
2017-12-15T10:17:56.118Z,939.66
2017-12-15T10:18:56.139Z,939.71
2017-12-15T10:19:56.159Z,939.85
2017-12-15T10:20:56.181Z,939.85
2017-12-15T10:21:56.203Z,939.86
2017-12-15T10:22:56.223Z,939.68
2017-12-15T10:23:56.246Z,939.72
2017-12-15T10:24:56.267Z,939.76
2017-12-15T10:25:56.289Z,939.85
2017-12-15T10:26:56.359Z,939.8
2017-12-15T10:27:56.331Z,939.83
2017-12-15T10:28:56.351Z,939.88
2017-12-15T10:29:56.373Z,939.94
2017-12-15T10:30:56.396Z,939.87
2017-12-15T10:31:56.416Z,939.86
2017-12-15T10:32:56.442Z,939.86
2017-12-15T10:33:56.458Z,939.83
2017-12-15T10:34:56.481Z,939.73
2017-12-15T10:35:56.502Z,939.8
2017-12-15T10:36:56.528Z,939.78
2017-12-15T10:37:56.547Z,939.77
2017-12-15T10:38:56.570Z,939.76
2017-12-15T10:39:56.593Z,939.83
2017-12-15T10:40:56.615Z,939.82
2017-12-15T10:41:56.688Z,939.82
2017-12-15T10:42:56.660Z,939.88
2017-12-15T10:43:56.685Z,939.9
2017-12-15T10:44:56.707Z,939.89
2017-12-15T10:45:56.732Z,939.94
2017-12-15T10:46:56.756Z,939.9
2017-12-15T10:47:56.779Z,939.89
2017-12-15T10:48:56.801Z,939.97
2017-12-15T10:49:56.825Z,939.93
2017-12-15T10:50:56.897Z,939.85
2017-12-15T10:51:56.875Z,939.85
2017-12-15T10:52:56.898Z,939.83
2017-12-15T10:53:56.921Z,939.89
2017-12-15T10:54:56.947Z,939.82
2017-12-15T10:55:56.969Z,939.85
2017-12-15T10:56:57.046Z,939.9
2017-12-15T10:57:57.034Z,939.92
2017-12-15T10:58:57.044Z,939.86
2017-12-15T10:59:57.068Z,939.9
2017-12-15T11:00:57.100Z,939.82
2017-12-15T11:01:57.119Z,939.86
2017-12-15T11:02:57.144Z,939.73
2017-12-15T11:03:57.167Z,939.81
2017-12-15T11:04:57.193Z,939.8
2017-12-15T11:05:57.220Z,939.87
2017-12-15T11:06:57.241Z,939.83
2017-12-15T11:07:57.266Z,939.92
2017-12-15T11:08:57.293Z,939.84
2017-12-15T11:09:57.318Z,939.85
2017-12-15T11:10:57.343Z,939.87
2017-12-15T11:11:57.419Z,939.72
2017-12-15T11:12:57.394Z,939.95
2017-12-15T11:13:57.420Z,939.76
2017-12-15T11:14:57.447Z,939.58
2017-12-15T11:15:57.472Z,939.64
2017-12-15T11:16:57.499Z,939.93
2017-12-15T11:17:57.524Z,939.94
2017-12-15T11:18:57.549Z,939.89
2017-12-15T11:19:57.574Z,940.03
2017-12-15T11:20:57.601Z,939.94
2017-12-15T11:21:57.628Z,939.8
2017-12-15T11:22:57.654Z,940.04
2017-12-15T11:23:57.680Z,939.99
2017-12-15T11:24:57.705Z,939.65
2017-12-15T11:25:57.731Z,939.93
2017-12-15T11:26:57.808Z,939.95
2017-12-15T11:27:57.785Z,939.81
2017-12-15T11:28:57.809Z,939.89
2017-12-15T11:29:57.836Z,939.89
2017-12-15T11:30:57.863Z,939.9
2017-12-15T11:31:57.889Z,939.89
2017-12-15T11:32:57.914Z,939.9
2017-12-15T11:33:57.941Z,939.96
2017-12-15T11:34:57.969Z,939.92
2017-12-15T11:35:57.995Z,939.84
2017-12-15T11:36:58.021Z,939.79
2017-12-15T11:37:58.049Z,940.1
2017-12-15T11:38:58.076Z,940.03
2017-12-15T11:39:58.101Z,940.22
2017-12-15T11:40:58.128Z,940.11
2017-12-15T11:41:58.205Z,939.76
2017-12-15T11:42:58.182Z,940.07
2017-12-15T11:43:58.208Z,940.09
2017-12-15T11:44:58.234Z,940.22
2017-12-15T11:45:58.260Z,940.15
2017-12-15T11:46:58.284Z,940.14
2017-12-15T11:47:58.311Z,940.21
2017-12-15T11:48:58.338Z,940.2
2017-12-15T11:49:58.363Z,940.17
2017-12-15T11:50:58.390Z,940.15
2017-12-15T11:51:58.415Z,940.17
2017-12-15T11:52:58.441Z,940.03
2017-12-15T11:53:58.468Z,940.07
2017-12-15T11:54:58.493Z,939.94
2017-12-15T11:55:58.521Z,939.74
2017-12-15T11:56:58.598Z,940.03
2017-12-15T11:57:58.574Z,939.7
2017-12-15T11:58:58.599Z,940.07
2017-12-15T11:59:58.627Z,939.95
2017-12-15T12:00:58.653Z,940.07
2017-12-15T12:01:58.679Z,940.04
2017-12-15T12:02:58.705Z,940.14
2017-12-15T12:03:58.734Z,940.11
2017-12-15T12:04:58.760Z,940.15
2017-12-15T12:05:58.788Z,939.63
2017-12-15T12:06:58.814Z,939.69
2017-12-15T12:07:58.840Z,940.05
2017-12-15T12:08:58.866Z,940.04
2017-12-15T12:09:58.894Z,940.03
2017-12-15T12:10:58.920Z,940.05
2017-12-15T12:11:59.096Z,939.96
2017-12-15T12:12:58.976Z,940.06
2017-12-15T12:13:59.000Z,940.02
2017-12-15T12:14:59.027Z,940.05
2017-12-15T12:15:59.055Z,940.04
2017-12-15T12:16:59.084Z,940.1
2017-12-15T12:17:59.108Z,940
2017-12-15T12:18:59.134Z,940.15
2017-12-15T12:19:59.162Z,940.03
2017-12-15T12:20:59.188Z,940.02
2017-12-15T12:21:59.216Z,940.09
2017-12-15T12:22:59.245Z,939.63
2017-12-15T12:23:59.270Z,940.16
2017-12-15T12:24:59.300Z,940.11
2017-12-15T12:25:59.326Z,940.14
2017-12-15T12:26:59.404Z,940.13
2017-12-15T12:27:59.381Z,939.97
2017-12-15T12:28:59.408Z,940.12
2017-12-15T12:29:59.436Z,940.14
2017-12-15T12:30:59.464Z,940.02
2017-12-15T12:31:59.493Z,940.04